Sanford, Florida
Current Conditions -  °F | °C
As of 7:53 PM on Tuesday 21 Oct 2014 (Local Time) from KSFB Reporting Station
Clear Clear  
Wind Chill: 75°   Ceiling: Unl
Heat Index: 75°   Visibility: 10mi
Dew Point: 70°   Wind: 3mph
Humidity: 84%   Direction: 70°ENE
Pressure: 29.93"   Gusts: NA
Location:  28.81°N, 81.27°W
Report Text: KSFB 212353Z 07003KT 10SM CLR 24/21 A2993 RMK AO2 SLP135 T02390211 10294 20239 53009
Loading
Personal Weather Stations






























Interactive Weather Map New forecast layout! Learn more

10-Day Weather Forecast

Advertisements
Track Severe Weather on mobile